Seaexpressii — HO4619 — position and weather

sailwx.info

Track history (hours):
 
Tides and Currents Weather Stations Pressure Air Temp Water Temp Dewpoint Dewpoint Depression Visibility Wind Speed Wind Dir Waves Ship Positions

Seaexpressii

Last reported at 2017-Nov-17 19:59 UTC. Time now 2017-Nov-21 02:39 UTC.
Position N 26°01' W 079°47'.

Length 37 m; draft 2.1 m.

Type: Cargo ship. MMSI: 356449000.

Date/timePositionNaut miles runAvg speedWind from/ knotsBaromVisibWave heightAir tempDewpointWater temp
2017-Nov-17 19:59N 26°01' W 079°47'4 8.2
2017-Nov-17 19:30N 26°02' W 079°51'4 8.3
2017-Nov-17 19:00N 26°03' W 079°55'4 8.4
2017-Nov-17 18:30N 26°04' W 079°60'4 9.0
2017-Nov-17 18:00N 26°06' W 080°04'3 6.1
2017-Nov-17 17:30N 26°04' W 080°07'0 1.0
2017-Nov-17 17:00N 26°04' W 080°08'0 0.0
2017-Nov-17 16:30N 26°04' W 080°08'0 0.0
2017-Nov-17 16:00N 26°04' W 080°08'0 0.0
2017-Nov-17 15:30N 26°04' W 080°08'0 0.0
2017-Nov-17 15:00N 26°04' W 080°08'0 0.0
2017-Nov-17 14:30N 26°04' W 080°08'0 0.0
2017-Nov-17 14:00N 26°04' W 080°08'0 0.0
2017-Nov-17 13:30N 26°04' W 080°08'0 0.0
2017-Nov-17 13:00N 26°04' W 080°08'0 0.4
2017-Nov-17 12:30N 26°04' W 080°08'2 4.2
2017-Nov-17 12:00N 26°06' W 080°07'2 3.6
2017-Nov-17 11:30N 26°05' W 080°05'1 2.6
2017-Nov-17 11:00N 26°05' W 080°03'3 5.9
2017-Nov-17 10:30N 26°04' W 080°00'5 9.3
2017-Nov-17 10:00N 26°02' W 079°55'2 5.0
2017-Nov-17 09:30N 26°02' W 079°53'4 7.3
2017-Nov-17 09:00N 26°01' W 079°49'4 7.3
2017-Nov-17 08:29N 25°59' W 079°45'  
2017-Nov-11 10:10N 25°57' W 079°34'1 7.7
2017-Nov-11 10:00N 25°57' W 079°36'4 7.4
2017-Nov-11 09:30N 25°58' W 079°40'4 7.3
2017-Nov-11 09:00N 25°59' W 079°44'4 7.1
2017-Nov-11 08:30N 25°60' W 079°47'3 7.0
2017-Nov-11 08:00N 26°01' W 079°51'4 7.2
2017-Nov-11 07:30N 26°02' W 079°55'4 7.6
2017-Nov-11 07:00N 26°04' W 079°59'4 8.9
2017-Nov-11 06:30N 26°05' W 080°04'3 5.9
2017-Nov-11 06:00N 26°05' W 080°07'1 2.9
2017-Nov-11 05:30N 26°04' W 080°08'0 0.2
2017-Nov-11 05:00N 26°04' W 080°08'0 0.0
2017-Nov-11 04:30N 26°04' W 080°08'0 0.0
2017-Nov-11 04:00N 26°04' W 080°08'0 0.0
2017-Nov-11 03:30N 26°04' W 080°08'0 0.0
2017-Nov-11 03:00N 26°04' W 080°08'0 0.0
2017-Nov-11 02:30N 26°04' W 080°08'0 0.0
2017-Nov-11 02:00N 26°04' W 080°08'0 0.0
2017-Nov-11 01:30N 26°04' W 080°08'0 0.0
2017-Nov-11 01:00N 26°04' W 080°08'0 0.0
2017-Nov-11 00:30N 26°04' W 080°08'0 0.0
2017-Nov-11 00:00N 26°04' W 080°08'0 0.0
2017-Nov-10 23:30N 26°04' W 080°08'2 4.2
2017-Nov-10 23:00N 26°06' W 080°07'4 8.1
2017-Nov-10 22:30N 26°04' W 080°02'510.5
2017-Nov-10 22:00N 26°03' W 079°57'510.7
2017-Nov-10 21:30N 26°02' W 079°51'510.9
2017-Nov-10 21:00N 25°60' W 079°45'510.6
2017-Nov-10 20:30N 25°58' W 079°40'610.6
2017-Nov-10 19:59N 25°57' W 079°34'510.8
2017-Nov-10 19:29N 25°55' W 079°28'510.6
2017-Nov-10 19:00N 25°54' W 079°23'510.5
2017-Nov-10 18:29N 25°53' W 079°17'510.8
2017-Nov-10 17:59N 25°51' W 079°11'510.3
2017-Nov-10 17:29N 25°49' W 079°06'510.0
2017-Nov-10 16:57N 25°48' W 078°60'  
Track history (hours):
 
Tides and Currents Weather Stations Pressure Air Temp Water Temp Dewpoint Dewpoint Depression Visibility Wind Speed Wind Dir Waves Ship Positions

Seaexpressii

Last reported at 2017-Nov-17 19:59 UTC. Time now 2017-Nov-21 02:39 UTC.
Position N 26°01' W 079°47'.

Length 37 m; draft 2.1 m.

Type: Cargo ship. MMSI: 356449000.

Date/timePositionNaut miles runAvg speedWind from/ knotsBaromVisibWave heightAir tempDewpointWater temp
2017-Nov-17 19:59N 26°01' W 079°47'4 8.2
2017-Nov-17 19:30N 26°02' W 079°51'4 8.3
2017-Nov-17 19:00N 26°03' W 079°55'4 8.4
2017-Nov-17 18:30N 26°04' W 079°60'4 9.0
2017-Nov-17 18:00N 26°06' W 080°04'3 6.1
2017-Nov-17 17:30N 26°04' W 080°07'0 1.0
2017-Nov-17 17:00N 26°04' W 080°08'0 0.0
2017-Nov-17 16:30N 26°04' W 080°08'0 0.0
2017-Nov-17 16:00N 26°04' W 080°08'0 0.0
2017-Nov-17 15:30N 26°04' W 080°08'0 0.0
2017-Nov-17 15:00N 26°04' W 080°08'0 0.0
2017-Nov-17 14:30N 26°04' W 080°08'0 0.0
2017-Nov-17 14:00N 26°04' W 080°08'0 0.0
2017-Nov-17 13:30N 26°04' W 080°08'0 0.0
2017-Nov-17 13:00N 26°04' W 080°08'0 0.4
2017-Nov-17 12:30N 26°04' W 080°08'2 4.2
2017-Nov-17 12:00N 26°06' W 080°07'2 3.6
2017-Nov-17 11:30N 26°05' W 080°05'1 2.6
2017-Nov-17 11:00N 26°05' W 080°03'3 5.9
2017-Nov-17 10:30N 26°04' W 080°00'5 9.3
2017-Nov-17 10:00N 26°02' W 079°55'2 5.0
2017-Nov-17 09:30N 26°02' W 079°53'4 7.3
2017-Nov-17 09:00N 26°01' W 079°49'4 7.3
2017-Nov-17 08:29N 25°59' W 079°45'  
2017-Nov-11 10:10N 25°57' W 079°34'1 7.7
2017-Nov-11 10:00N 25°57' W 079°36'4 7.4
2017-Nov-11 09:30N 25°58' W 079°40'4 7.3
2017-Nov-11 09:00N 25°59' W 079°44'4 7.1
2017-Nov-11 08:30N 25°60' W 079°47'3 7.0
2017-Nov-11 08:00N 26°01' W 079°51'4 7.2
2017-Nov-11 07:30N 26°02' W 079°55'4 7.6
2017-Nov-11 07:00N 26°04' W 079°59'4 8.9
2017-Nov-11 06:30N 26°05' W 080°04'3 5.9
2017-Nov-11 06:00N 26°05' W 080°07'1 2.9
2017-Nov-11 05:30N 26°04' W 080°08'0 0.2
2017-Nov-11 05:00N 26°04' W 080°08'0 0.0
2017-Nov-11 04:30N 26°04' W 080°08'0 0.0
2017-Nov-11 04:00N 26°04' W 080°08'0 0.0
2017-Nov-11 03:30N 26°04' W 080°08'0 0.0
2017-Nov-11 03:00N 26°04' W 080°08'0 0.0
2017-Nov-11 02:30N 26°04' W 080°08'0 0.0
2017-Nov-11 02:00N 26°04' W 080°08'0 0.0
2017-Nov-11 01:30N 26°04' W 080°08'0 0.0
2017-Nov-11 01:00N 26°04' W 080°08'0 0.0
2017-Nov-11 00:30N 26°04' W 080°08'0 0.0
2017-Nov-11 00:00N 26°04' W 080°08'0 0.0
2017-Nov-10 23:30N 26°04' W 080°08'2 4.2
2017-Nov-10 23:00N 26°06' W 080°07'4 8.1
2017-Nov-10 22:30N 26°04' W 080°02'510.5
2017-Nov-10 22:00N 26°03' W 079°57'510.7
2017-Nov-10 21:30N 26°02' W 079°51'510.9
2017-Nov-10 21:00N 25°60' W 079°45'510.6
2017-Nov-10 20:30N 25°58' W 079°40'610.6
2017-Nov-10 19:59N 25°57' W 079°34'510.8
2017-Nov-10 19:29N 25°55' W 079°28'510.6
2017-Nov-10 19:00N 25°54' W 079°23'510.5
2017-Nov-10 18:29N 25°53' W 079°17'510.8
2017-Nov-10 17:59N 25°51' W 079°11'510.3
2017-Nov-10 17:29N 25°49' W 079°06'510.0
2017-Nov-10 16:57N 25°48' W 078°60'  

Dump ship's entire track history